Time;durP1;ratioP1;P1;durP2;ratioP2;P2;SDS_P1;SDS_P2;PMS_P1;PMS_P2;Temp;Humidity;BMP_temperature;BMP_pressure;BME280_temperature;BME280_humidity;BME280_pressure;Samples;Min_cycle;Max_cycle;Signal;HPM_P1;HPM_P2
2022/03/16 00:00:21;;;;;;;9.52;4.05;;;;;;;;;;5086808;28;20024;-49
2022/03/16 00:02:47;;;;;;;8.13;4.20;;;;;;;;;;5081504;28;20024;-49
2022/03/16 00:05:14;;;;;;;10.48;5.22;;;;;;;;;;5082520;28;20032;-48
2022/03/16 00:07:40;;;;;;;11.77;4.50;;;;;;;;;;5083195;28;20063;-49
2022/03/16 00:10:07;;;;;;;9.73;5.07;;;;;;;;;;5087461;28;20051;-47
2022/03/16 00:12:34;;;;;;;21.15;5.45;;;;;;;;;;5084414;28;20035;-52
2022/03/16 00:14:59;;;;;;;13.52;5.65;;;;;;;;;;5084190;28;20024;-50
2022/03/16 00:17:26;;;;;;;15.35;5.45;;;;;;;;;;5090145;28;20103;-49
2022/03/16 00:19:52;;;;;;;10.32;5.20;;;;;;;;;;5080947;28;20025;-48
2022/03/16 00:22:18;;;;;;;15.05;5.40;;;;;;;;;;5088707;28;20092;-49
2022/03/16 00:24:44;;;;;;;9.52;5.00;;;;;;;;;;5085632;28;20028;-46
2022/03/16 00:27:10;;;;;;;10.65;5.43;;;;;;;;;;5078825;28;20056;-47
2022/03/16 00:29:36;;;;;;;13.05;5.18;;;;;;;;;;5078753;28;20054;-47
2022/03/16 00:32:03;;;;;;;10.23;4.85;;;;;;;;;;5080677;28;20352;-50
2022/03/16 00:34:29;;;;;;;12.38;5.20;;;;;;;;;;5086665;28;20039;-47
2022/03/16 00:36:55;;;;;;;11.35;4.95;;;;;;;;;;5087251;28;20045;-51
2022/03/16 00:39:21;;;;;;;13.15;5.30;;;;;;;;;;5075882;28;20037;-47
2022/03/16 00:41:47;;;;;;;11.25;5.32;;;;;;;;;;5089510;28;20509;-48
2022/03/16 00:44:13;;;;;;;13.70;5.90;;;;;;;;;;5089046;28;20801;-48
2022/03/16 00:46:40;;;;;;;13.48;5.35;;;;;;;;;;5078077;28;20024;-48
2022/03/16 00:49:06;;;;;;;13.65;5.35;;;;;;;;;;5086110;28;20031;-47
2022/03/16 00:51:32;;;;;;;12.35;5.70;;;;;;;;;;5080709;28;20048;-49
2022/03/16 00:53:58;;;;;;;14.27;6.15;;;;;;;;;;5078160;28;20072;-48
2022/03/16 00:56:24;;;;;;;13.45;6.00;;;;;;;;;;5086934;28;20024;-46
2022/03/16 00:58:50;;;;;;;12.15;5.38;;;;;;;;;;5084832;28;20021;-47
2022/03/16 01:01:16;;;;;;;12.85;5.00;;;;;;;;;;5086914;28;20383;-50
2022/03/16 01:03:43;;;;;;;12.68;5.25;;;;;;;;;;5075747;28;20029;-47
2022/03/16 01:06:15;;;;;;;11.50;4.97;;;;;;;;;;5083757;28;20363;-49
2022/03/16 01:08:41;;;;;;;13.45;4.82;;;;;;;;;;5077817;28;20025;-48
2022/03/16 01:11:07;;;;;;;10.45;5.57;;;;;;;;;;5080320;28;20054;-48
2022/03/16 01:13:33;;;;;;;11.48;4.97;;;;;;;;;;5075854;28;20036;-47
2022/03/16 01:15:59;;;;;;;11.10;5.28;;;;;;;;;;5082571;28;20523;-47
2022/03/16 01:18:25;;;;;;;12.63;5.50;;;;;;;;;;5087019;28;20048;-51
2022/03/16 01:20:51;;;;;;;12.65;5.55;;;;;;;;;;5081181;28;20024;-50
2022/03/16 01:23:17;;;;;;;10.77;5.80;;;;;;;;;;5078771;28;20029;-48
2022/03/16 01:25:43;;;;;;;12.18;5.72;;;;;;;;;;5083420;28;20035;-47
2022/03/16 01:28:09;;;;;;;13.75;5.97;;;;;;;;;;5079066;28;20035;-47
2022/03/16 01:30:35;;;;;;;11.85;5.70;;;;;;;;;;5078265;28;20033;-47
2022/03/16 01:33:02;;;;;;;13.70;6.20;;;;;;;;;;5076230;28;20021;-47
2022/03/16 01:35:28;;;;;;;11.57;5.28;;;;;;;;;;5088399;28;20024;-49
2022/03/16 01:37:54;;;;;;;13.25;6.00;;;;;;;;;;5077957;28;20024;-47
2022/03/16 01:40:19;;;;;;;15.07;6.30;;;;;;;;;;5082654;28;20145;-46
2022/03/16 01:42:45;;;;;;;12.25;5.68;;;;;;;;;;5087067;28;20032;-46
2022/03/16 01:45:11;;;;;;;16.05;7.07;;;;;;;;;;5089715;28;20430;-47
2022/03/16 01:47:37;;;;;;;12.40;6.57;;;;;;;;;;5092525;28;20028;-47
2022/03/16 01:50:04;;;;;;;12.20;6.25;;;;;;;;;;5084951;28;20027;-49
2022/03/16 01:52:30;;;;;;;18.52;6.93;;;;;;;;;;5080715;28;20140;-51
2022/03/16 01:54:57;;;;;;;11.73;5.75;;;;;;;;;;5092455;28;20032;-50
2022/03/16 01:57:23;;;;;;;16.15;6.82;;;;;;;;;;5082058;28;20020;-49
2022/03/16 01:59:49;;;;;;;17.08;6.68;;;;;;;;;;5086794;28;20024;-50
2022/03/16 02:02:16;;;;;;;15.77;6.40;;;;;;;;;;5077706;28;20496;-47
2022/03/16 02:04:44;;;;;;;17.73;6.97;;;;;;;;;;5091047;28;20032;-51
2022/03/16 02:07:10;;;;;;;15.52;6.80;;;;;;;;;;5078948;28;20476;-50
2022/03/16 02:09:36;;;;;;;18.02;7.80;;;;;;;;;;5077395;28;20028;-49
2022/03/16 02:12:03;;;;;;;11.15;6.05;;;;;;;;;;5085009;28;20086;-48
2022/03/16 02:14:29;;;;;;;17.45;6.72;;;;;;;;;;5086821;28;20036;-47
2022/03/16 02:16:57;;;;;;;14.45;6.00;;;;;;;;;;5080336;28;20097;-53
2022/03/16 02:19:23;;;;;;;20.00;6.03;;;;;;;;;;5079034;28;20033;-50
2022/03/16 02:21:54;;;;;;;16.27;6.15;;;;;;;;;;5078021;28;20047;-50
2022/03/16 02:24:20;;;;;;;13.63;6.40;;;;;;;;;;5073892;28;20086;-48
2022/03/16 02:26:46;;;;;;;12.07;6.53;;;;;;;;;;5088337;28;20024;-51
2022/03/16 02:29:12;;;;;;;20.10;6.97;;;;;;;;;;5081034;28;20032;-48
2022/03/16 02:31:38;;;;;;;13.70;6.63;;;;;;;;;;5089319;28;20028;-50
2022/03/16 02:34:04;;;;;;;14.30;7.47;;;;;;;;;;5085881;28;20468;-50
2022/03/16 02:36:30;;;;;;;17.08;7.07;;;;;;;;;;5079319;28;20059;-50
2022/03/16 02:38:56;;;;;;;15.20;7.25;;;;;;;;;;5076107;28;20020;-51
2022/03/16 02:41:22;;;;;;;13.98;6.78;;;;;;;;;;5083309;28;20047;-49
2022/03/16 02:43:48;;;;;;;18.35;7.47;;;;;;;;;;5079964;28;20024;-51
2022/03/16 02:46:14;;;;;;;16.17;7.63;;;;;;;;;;5082681;28;20090;-47
2022/03/16 02:48:40;;;;;;;16.23;7.03;;;;;;;;;;5082602;28;20047;-49
2022/03/16 02:51:06;;;;;;;16.02;7.28;;;;;;;;;;5074718;28;20042;-47
2022/03/16 02:53:32;;;;;;;12.85;7.50;;;;;;;;;;5092429;28;20127;-51
2022/03/16 02:55:58;;;;;;;17.05;7.57;;;;;;;;;;5081549;28;20024;-52
2022/03/16 02:58:24;;;;;;;13.85;7.72;;;;;;;;;;5085076;28;20026;-47
2022/03/16 03:00:50;;;;;;;16.17;7.10;;;;;;;;;;5084849;28;20024;-48
2022/03/16 03:03:17;;;;;;;18.20;6.95;;;;;;;;;;5082047;28;20116;-51
2022/03/16 03:05:43;;;;;;;16.52;6.82;;;;;;;;;;5083056;28;20495;-46
2022/03/16 03:08:09;;;;;;;18.92;7.32;;;;;;;;;;5082883;28;20036;-48
2022/03/16 03:10:35;;;;;;;13.45;7.38;;;;;;;;;;5089457;28;20077;-48
2022/03/16 03:13:01;;;;;;;15.52;6.47;;;;;;;;;;5074455;28;20376;-47
2022/03/16 03:15:27;;;;;;;16.25;7.50;;;;;;;;;;5090005;28;20027;-48
2022/03/16 03:17:53;;;;;;;12.45;6.75;;;;;;;;;;5083956;28;20099;-48
2022/03/16 03:20:19;;;;;;;16.75;7.88;;;;;;;;;;5082159;28;20025;-50
2022/03/16 03:22:45;;;;;;;18.23;7.97;;;;;;;;;;5082009;28;20069;-50
2022/03/16 03:25:12;;;;;;;21.60;7.55;;;;;;;;;;5098262;28;20480;-51
2022/03/16 03:27:38;;;;;;;17.92;7.38;;;;;;;;;;5091135;28;20375;-52
2022/03/16 03:30:05;;;;;;;14.55;7.68;;;;;;;;;;5086895;28;20102;-50
2022/03/16 03:32:31;;;;;;;18.75;7.47;;;;;;;;;;5088537;28;20024;-51
2022/03/16 03:34:57;;;;;;;19.63;8.32;;;;;;;;;;5092522;28;20108;-47
2022/03/16 03:37:28;;;;;;;17.85;7.68;;;;;;;;;;5090553;28;20095;-52
2022/03/16 03:39:54;;;;;;;18.13;8.52;;;;;;;;;;5090632;28;20016;-52
2022/03/16 03:42:20;;;;;;;15.50;7.72;;;;;;;;;;5079817;28;20550;-47
2022/03/16 03:44:46;;;;;;;18.33;7.63;;;;;;;;;;5087943;28;20031;-47
2022/03/16 03:47:13;;;;;;;19.20;8.35;;;;;;;;;;5093906;28;20476;-47
2022/03/16 03:49:39;;;;;;;19.73;9.00;;;;;;;;;;5098388;28;20032;-48
2022/03/16 03:52:06;;;;;;;21.02;8.73;;;;;;;;;;5082268;28;20032;-47
2022/03/16 03:54:32;;;;;;;18.58;8.32;;;;;;;;;;5090678;28;20387;-48
2022/03/16 03:56:58;;;;;;;22.05;8.82;;;;;;;;;;5094274;28;20482;-47
2022/03/16 03:59:24;;;;;;;18.73;8.23;;;;;;;;;;5086406;28;20028;-47
2022/03/16 04:01:51;;;;;;;17.60;8.40;;;;;;;;;;5094244;28;20189;-47
2022/03/16 04:04:17;;;;;;;17.60;8.25;;;;;;;;;;5096845;28;20035;-49
2022/03/16 04:06:44;;;;;;;20.92;9.07;;;;;;;;;;5091490;28;20040;-47
2022/03/16 04:09:10;;;;;;;17.45;7.65;;;;;;;;;;5093622;28;20369;-51
2022/03/16 04:11:36;;;;;;;17.83;8.43;;;;;;;;;;5090618;28;20105;-47
2022/03/16 04:14:02;;;;;;;20.10;8.27;;;;;;;;;;5083098;28;20042;-48
2022/03/16 04:16:28;;;;;;;17.48;7.10;;;;;;;;;;5087621;28;20540;-49
2022/03/16 04:18:54;;;;;;;18.25;8.30;;;;;;;;;;5083970;28;20066;-52
2022/03/16 04:21:20;;;;;;;20.58;8.02;;;;;;;;;;5090335;28;20027;-47
2022/03/16 04:23:46;;;;;;;19.55;7.65;;;;;;;;;;5082126;28;20032;-47
2022/03/16 04:26:12;;;;;;;14.65;7.50;;;;;;;;;;5084192;28;20418;-46
2022/03/16 04:28:38;;;;;;;17.48;7.43;;;;;;;;;;5080462;28;20063;-47
2022/03/16 04:31:04;;;;;;;16.85;8.10;;;;;;;;;;5087727;28;20464;-51
2022/03/16 04:33:31;;;;;;;17.25;8.52;;;;;;;;;;5087610;28;20032;-48
2022/03/16 04:35:57;;;;;;;18.70;8.43;;;;;;;;;;5082255;28;20074;-48
2022/03/16 04:38:23;;;;;;;21.70;8.13;;;;;;;;;;5094057;28;20076;-51
2022/03/16 04:40:49;;;;;;;15.98;7.82;;;;;;;;;;5078305;28;20111;-47
2022/03/16 04:43:15;;;;;;;23.75;8.05;;;;;;;;;;5089609;28;21992;-48
2022/03/16 04:45:41;;;;;;;20.30;8.68;;;;;;;;;;5082902;28;20028;-47
2022/03/16 04:48:08;;;;;;;21.17;8.65;;;;;;;;;;5087450;28;20040;-48
2022/03/16 04:50:35;;;;;;;16.77;8.32;;;;;;;;;;5083497;28;20035;-48
2022/03/16 04:53:01;;;;;;;21.60;9.02;;;;;;;;;;5080449;28;20079;-48
2022/03/16 04:55:27;;;;;;;19.40;8.85;;;;;;;;;;5085947;28;20052;-47
2022/03/16 04:57:53;;;;;;;19.65;9.07;;;;;;;;;;5082846;28;20478;-48
2022/03/16 05:00:19;;;;;;;18.52;8.73;;;;;;;;;;5087568;28;20024;-47
2022/03/16 05:02:45;;;;;;;17.00;8.77;;;;;;;;;;5085430;28;20032;-47
2022/03/16 05:05:11;;;;;;;23.63;9.40;;;;;;;;;;5074717;28;20364;-46
2022/03/16 05:07:37;;;;;;;18.73;8.68;;;;;;;;;;5091648;28;20032;-46
2022/03/16 05:10:04;;;;;;;22.05;9.35;;;;;;;;;;5084510;28;20410;-47
2022/03/16 05:12:36;;;;;;;21.13;8.27;;;;;;;;;;5080614;28;20028;-49
2022/03/16 05:15:02;;;;;;;19.00;8.45;;;;;;;;;;5078737;28;20028;-50
2022/03/16 05:17:28;;;;;;;18.45;8.48;;;;;;;;;;5083202;28;20024;-48
2022/03/16 05:19:54;;;;;;;21.42;8.95;;;;;;;;;;5083220;28;20033;-49
2022/03/16 05:22:20;;;;;;;19.17;8.40;;;;;;;;;;5072983;28;20035;-49
2022/03/16 05:24:46;;;;;;;22.98;8.63;;;;;;;;;;5082498;28;20487;-47
2022/03/16 05:27:12;;;;;;;26.30;10.63;;;;;;;;;;5083207;28;20020;-48
2022/03/16 05:29:38;;;;;;;24.75;9.45;;;;;;;;;;5079767;28;20463;-48
2022/03/16 05:32:04;;;;;;;17.05;8.05;;;;;;;;;;5081854;28;20066;-48
2022/03/16 05:34:30;;;;;;;20.70;8.95;;;;;;;;;;5076140;28;20021;-47
2022/03/16 05:36:56;;;;;;;20.35;8.50;;;;;;;;;;5088264;28;20051;-48
2022/03/16 05:39:22;;;;;;;23.80;8.75;;;;;;;;;;5082044;28;20383;-46
2022/03/16 05:41:48;;;;;;;21.73;8.75;;;;;;;;;;5091112;28;20024;-46
2022/03/16 05:44:14;;;;;;;22.77;9.55;;;;;;;;;;5077268;28;20488;-48
2022/03/16 05:46:40;;;;;;;20.50;8.75;;;;;;;;;;5080554;28;20390;-47
2022/03/16 05:49:05;;;;;;;19.98;8.73;;;;;;;;;;5075362;28;20056;-49
2022/03/16 05:51:32;;;;;;;20.67;8.82;;;;;;;;;;5073639;28;20024;-51
2022/03/16 05:53:58;;;;;;;20.70;9.15;;;;;;;;;;5072741;28;20044;-48
2022/03/16 05:56:23;;;;;;;19.35;8.48;;;;;;;;;;5090212;28;20032;-48
2022/03/16 05:58:49;;;;;;;15.27;7.40;;;;;;;;;;5080729;28;20032;-47
2022/03/16 06:01:15;;;;;;;18.10;7.72;;;;;;;;;;5083843;28;20035;-47
2022/03/16 06:03:41;;;;;;;15.55;7.78;;;;;;;;;;5080565;28;20020;-48
2022/03/16 06:06:07;;;;;;;23.10;8.05;;;;;;;;;;5082251;28;20013;-50
2022/03/16 06:08:33;;;;;;;20.00;8.35;;;;;;;;;;5080532;28;20028;-48
2022/03/16 06:10:59;;;;;;;26.02;8.95;;;;;;;;;;5090416;28;20031;-47
2022/03/16 06:13:26;;;;;;;19.45;9.40;;;;;;;;;;5084724;28;20036;-47
2022/03/16 06:15:52;;;;;;;16.65;8.18;;;;;;;;;;5081251;28;20027;-50
2022/03/16 06:18:18;;;;;;;22.08;9.60;;;;;;;;;;5075731;28;20032;-47
2022/03/16 06:20:44;;;;;;;20.13;8.45;;;;;;;;;;5080635;28;20039;-51
2022/03/16 06:23:10;;;;;;;21.55;9.20;;;;;;;;;;5080896;28;20036;-50
2022/03/16 06:25:36;;;;;;;19.73;8.80;;;;;;;;;;5085255;28;20040;-48
2022/03/16 06:28:02;;;;;;;18.33;9.10;;;;;;;;;;5081843;28;20081;-48
2022/03/16 06:30:28;;;;;;;18.75;8.70;;;;;;;;;;5090618;28;20093;-46
2022/03/16 06:32:54;;;;;;;21.38;9.45;;;;;;;;;;5078956;28;20619;-47
2022/03/16 06:35:20;;;;;;;22.67;9.40;;;;;;;;;;5083288;28;20028;-47
2022/03/16 06:37:46;;;;;;;23.70;10.35;;;;;;;;;;5081885;28;20020;-47
2022/03/16 06:40:13;;;;;;;19.67;9.68;;;;;;;;;;5089411;28;20025;-47
2022/03/16 06:42:49;;;;;;;25.02;9.50;;;;;;;;;;5078916;28;20357;-47
2022/03/16 06:45:16;;;;;;;25.05;9.75;;;;;;;;;;5089132;28;20044;-51
2022/03/16 06:47:42;;;;;;;20.20;10.25;;;;;;;;;;5076099;28;20024;-52
2022/03/16 06:50:09;;;;;;;21.88;9.68;;;;;;;;;;5077987;28;20035;-52
2022/03/16 06:52:35;;;;;;;27.88;9.77;;;;;;;;;;5075361;28;20048;-47
2022/03/16 06:55:01;;;;;;;26.15;10.18;;;;;;;;;;5072353;28;20032;-47
2022/03/16 06:57:27;;;;;;;19.98;8.63;;;;;;;;;;5079312;28;20044;-51
2022/03/16 06:59:53;;;;;;;22.45;9.07;;;;;;;;;;5081390;28;20076;-50
2022/03/16 07:02:18;;;;;;;18.65;8.63;;;;;;;;;;5082882;28;20025;-52
2022/03/16 07:04:44;;;;;;;20.90;8.98;;;;;;;;;;5091970;28;20077;-47
2022/03/16 07:07:10;;;;;;;22.55;10.20;;;;;;;;;;5082667;28;20028;-48
2022/03/16 07:09:36;;;;;;;20.58;8.30;;;;;;;;;;5086128;28;20074;-50
2022/03/16 07:12:02;;;;;;;20.08;9.75;;;;;;;;;;5076264;28;20380;-49
2022/03/16 07:14:31;;;;;;;20.67;9.30;;;;;;;;;;5078098;28;20024;-46
2022/03/16 07:17:01;;;;;;;23.33;10.45;;;;;;;;;;5075143;28;20047;-47
2022/03/16 07:19:28;;;;;;;24.65;9.38;;;;;;;;;;5081652;28;20452;-47
2022/03/16 07:21:55;;;;;;;22.52;10.70;;;;;;;;;;5078353;28;20029;-46
2022/03/16 07:24:20;;;;;;;29.35;11.45;;;;;;;;;;5075581;28;20029;-47
2022/03/16 07:26:46;;;;;;;32.10;12.85;;;;;;;;;;5082521;28;20035;-48
2022/03/16 07:29:12;;;;;;;30.13;12.35;;;;;;;;;;5080201;28;20050;-47
2022/03/16 07:31:38;;;;;;;29.42;12.80;;;;;;;;;;5081951;28;20111;-48
2022/03/16 07:34:04;;;;;;;32.28;13.63;;;;;;;;;;5075826;28;20028;-47
2022/03/16 07:36:31;;;;;;;32.05;13.60;;;;;;;;;;5076039;28;20028;-52
2022/03/16 07:38:57;;;;;;;34.45;14.57;;;;;;;;;;5083633;28;20028;-46
2022/03/16 07:41:23;;;;;;;34.83;13.75;;;;;;;;;;5083110;28;20123;-47
2022/03/16 07:43:49;;;;;;;36.15;16.00;;;;;;;;;;5087051;28;20112;-48
2022/03/16 07:46:15;;;;;;;35.65;18.45;;;;;;;;;;5079073;28;20548;-49
2022/03/16 07:48:43;;;;;;;33.45;14.18;;;;;;;;;;5087609;28;20024;-49
2022/03/16 07:51:09;;;;;;;30.92;13.45;;;;;;;;;;5084584;28;20036;-49
2022/03/16 07:53:35;;;;;;;31.42;12.82;;;;;;;;;;5087493;28;20040;-47
2022/03/16 07:56:02;;;;;;;26.98;12.45;;;;;;;;;;5088664;28;20020;-47
2022/03/16 07:58:28;;;;;;;27.75;12.10;;;;;;;;;;5083357;28;20043;-48
2022/03/16 08:00:54;;;;;;;29.73;12.27;;;;;;;;;;5084638;28;20027;-48
2022/03/16 08:03:20;;;;;;;27.95;11.50;;;;;;;;;;5089507;28;20035;-48
2022/03/16 08:05:47;;;;;;;26.17;11.80;;;;;;;;;;5090656;28;20469;-48
2022/03/16 08:08:13;;;;;;;28.98;12.75;;;;;;;;;;5086832;28;20076;-50
2022/03/16 08:10:39;;;;;;;27.58;11.55;;;;;;;;;;5094043;28;20409;-48
2022/03/16 08:13:05;;;;;;;22.20;10.45;;;;;;;;;;5088154;28;20040;-50
2022/03/16 08:15:31;;;;;;;22.83;9.98;;;;;;;;;;5088197;28;20024;-47
2022/03/16 08:17:57;;;;;;;25.27;10.55;;;;;;;;;;5086440;28;20024;-50
2022/03/16 08:20:23;;;;;;;24.25;10.15;;;;;;;;;;5089593;28;20035;-48
2022/03/16 08:22:54;;;;;;;21.13;9.65;;;;;;;;;;5085782;28;20107;-49
2022/03/16 08:25:19;;;;;;;26.55;9.68;;;;;;;;;;5083648;28;20470;-50
2022/03/16 08:27:45;;;;;;;19.85;9.48;;;;;;;;;;5087522;28;20035;-48
2022/03/16 08:30:12;;;;;;;25.33;10.32;;;;;;;;;;5094455;28;20046;-47
2022/03/16 08:32:38;;;;;;;24.33;9.23;;;;;;;;;;5081380;28;20498;-47
2022/03/16 08:35:06;;;;;;;27.00;10.55;;;;;;;;;;5084353;28;20054;-47
2022/03/16 08:37:32;;;;;;;21.70;9.60;;;;;;;;;;5086633;28;20067;-46
2022/03/16 08:39:58;;;;;;;19.75;10.13;;;;;;;;;;5088110;28;20035;-47
2022/03/16 08:42:24;;;;;;;19.67;8.85;;;;;;;;;;5084579;28;20020;-47
2022/03/16 08:44:51;;;;;;;21.98;9.50;;;;;;;;;;5086376;28;20389;-50
2022/03/16 08:47:18;;;;;;;20.25;10.02;;;;;;;;;;5081726;28;20025;-47
2022/03/16 08:49:44;;;;;;;22.17;10.13;;;;;;;;;;5085826;28;20111;-47
2022/03/16 08:52:10;;;;;;;19.48;9.45;;;;;;;;;;5089652;28;20017;-50
2022/03/16 08:54:37;;;;;;;20.60;10.32;;;;;;;;;;5093788;28;20074;-48
2022/03/16 08:57:03;;;;;;;23.58;9.90;;;;;;;;;;5093875;28;20073;-47
2022/03/16 08:59:29;;;;;;;20.65;9.23;;;;;;;;;;5082782;28;20367;-49
2022/03/16 09:01:55;;;;;;;20.77;9.07;;;;;;;;;;5073662;28;20499;-51
2022/03/16 09:04:21;;;;;;;19.77;9.35;;;;;;;;;;5078658;28;20025;-47
2022/03/16 09:06:48;;;;;;;19.55;9.23;;;;;;;;;;5077495;28;20027;-49
2022/03/16 09:09:14;;;;;;;19.30;8.98;;;;;;;;;;5077213;28;20025;-49
2022/03/16 09:11:40;;;;;;;20.33;8.95;;;;;;;;;;5076943;28;20476;-47
2022/03/16 09:14:07;;;;;;;19.70;7.82;;;;;;;;;;5083641;28;20039;-47
2022/03/16 09:16:33;;;;;;;15.48;8.13;;;;;;;;;;5074993;28;20051;-47
2022/03/16 09:18:59;;;;;;;15.55;7.65;;;;;;;;;;5089184;28;20038;-49
2022/03/16 09:21:25;;;;;;;18.70;8.48;;;;;;;;;;5076440;28;20029;-47
2022/03/16 09:23:52;;;;;;;17.10;7.88;;;;;;;;;;5075850;28;20028;-51
2022/03/16 09:26:20;;;;;;;14.38;7.32;;;;;;;;;;5070499;28;20461;-51
2022/03/16 09:28:46;;;;;;;16.55;6.95;;;;;;;;;;5074557;28;20036;-48
2022/03/16 09:31:12;;;;;;;15.60;7.18;;;;;;;;;;5076920;28;20040;-47
2022/03/16 09:33:38;;;;;;;16.35;7.13;;;;;;;;;;5083451;28;20028;-50
2022/03/16 09:36:08;;;;;;;13.85;7.05;;;;;;;;;;5080348;28;20029;-53
2022/03/16 09:38:34;;;;;;;15.20;7.65;;;;;;;;;;5077869;28;20020;-48
2022/03/16 09:41:01;;;;;;;16.23;7.38;;;;;;;;;;5078714;28;20483;-47
2022/03/16 09:43:27;;;;;;;14.70;7.75;;;;;;;;;;5078998;28;20032;-48
2022/03/16 09:45:55;;;;;;;19.38;6.93;;;;;;;;;;5080889;28;20348;-47
2022/03/16 09:48:23;;;;;;;16.52;8.10;;;;;;;;;;5076471;28;20377;-50
2022/03/16 09:50:49;;;;;;;16.50;7.50;;;;;;;;;;5077380;28;20064;-49
2022/03/16 09:53:15;;;;;;;16.13;7.20;;;;;;;;;;5084269;28;20078;-49
2022/03/16 09:55:41;;;;;;;17.20;8.35;;;;;;;;;;5084640;28;20047;-49
2022/03/16 09:58:07;;;;;;;17.00;7.63;;;;;;;;;;5078720;28;20028;-48
2022/03/16 10:00:33;;;;;;;20.55;9.10;;;;;;;;;;5083318;28;20032;-52
2022/03/16 10:03:02;;;;;;;18.92;8.75;;;;;;;;;;5087792;28;20028;-47
2022/03/16 10:05:29;;;;;;;13.52;7.15;;;;;;;;;;5081978;28;20103;-49
2022/03/16 10:07:55;;;;;;;15.38;7.88;;;;;;;;;;5076187;28;20035;-50
2022/03/16 10:13:15;;;;;;;13.43;7.15;;;;;;;;;;5088694;28;20059;-48
2022/03/16 10:15:44;;;;;;;14.20;7.47;;;;;;;;;;5089494;28;20023;-49
2022/03/16 10:18:11;;;;;;;14.32;7.30;;;;;;;;;;5075299;28;20033;-48
2022/03/16 10:20:39;;;;;;;14.15;7.18;;;;;;;;;;5076868;28;20078;-51
2022/03/16 10:23:07;;;;;;;16.67;8.02;;;;;;;;;;5081868;28;20074;-51
2022/03/16 10:25:37;;;;;;;18.77;8.65;;;;;;;;;;5080680;28;20032;-50
2022/03/16 10:28:10;;;;;;;19.08;9.68;;;;;;;;;;5082549;28;20077;-51
2022/03/16 10:30:36;;;;;;;;;;;;;;;;;;5082560;28;20031;-52
2022/03/16 10:33:02;;;;;;;21.38;9.38;;;;;;;;;;5080185;28;20559;-48
2022/03/16 10:35:28;;;;;;;16.02;8.75;;;;;;;;;;5083580;28;20032;-50
2022/03/16 10:38:06;;;;;;;16.67;8.45;;;;;;;;;;5081192;28;20025;-50
2022/03/16 10:40:32;;;;;;;21.33;9.18;;;;;;;;;;5076442;28;20563;-51
2022/03/16 10:48:28;;;;;;;17.95;9.20;;;;;;;;;;5079530;28;20047;-51
2022/03/16 10:50:58;;;;;;;18.85;9.90;;;;;;;;;;5081552;28;20059;-51
2022/03/16 10:53:28;;;;;;;27.00;10.73;;;;;;;;;;5077471;28;20037;-49
2022/03/16 10:55:56;;;;;;;15.35;8.88;;;;;;;;;;5080728;28;20027;-48
2022/03/16 10:58:22;;;;;;;17.05;9.55;;;;;;;;;;5081624;28;20039;-51
2022/03/16 11:00:48;;;;;;;15.82;8.70;;;;;;;;;;5085467;28;20047;-50
2022/03/16 11:03:18;;;;;;;17.33;8.85;;;;;;;;;;5075757;28;20400;-47
2022/03/16 11:05:44;;;;;;;13.45;7.10;;;;;;;;;;5083038;28;20464;-48
2022/03/16 11:08:11;;;;;;;15.50;6.97;;;;;;;;;;5091005;28;20024;-51
2022/03/16 11:10:37;;;;;;;12.27;7.00;;;;;;;;;;5079072;28;20468;-53
2022/03/16 11:15:50;;;;;;;13.30;6.97;;;;;;;;;;5087784;28;20059;-52
2022/03/16 11:18:19;;;;;;;12.38;6.50;;;;;;;;;;5084246;28;20044;-49
2022/03/16 11:20:49;;;;;;;14.25;6.75;;;;;;;;;;5082011;28;20115;-52
2022/03/16 11:26:03;;;;;;;12.75;7.00;;;;;;;;;;5080454;28;20052;-48
2022/03/16 11:28:35;;;;;;;12.18;6.28;;;;;;;;;;5078863;28;20476;-48
2022/03/16 11:31:01;;;;;;;10.25;5.57;;;;;;;;;;5085279;28;20027;-52
2022/03/16 11:33:27;;;;;;;14.60;7.20;;;;;;;;;;5093437;28;20039;-47
2022/03/16 11:35:55;;;;;;;10.13;6.15;;;;;;;;;;5085187;28;20027;-53
2022/03/16 11:38:21;;;;;;;10.57;6.25;;;;;;;;;;5095309;28;20024;-49
2022/03/16 11:40:49;;;;;;;9.93;5.53;;;;;;;;;;5092413;28;20028;-53
2022/03/16 11:43:22;;;;;;;7.40;4.60;;;;;;;;;;5084281;28;20027;-51
2022/03/16 11:45:54;;;;;;;9.70;5.78;;;;;;;;;;5088068;28;20032;-52
2022/03/16 11:48:33;;;;;;;10.52;5.78;;;;;;;;;;5090121;28;20109;-53
2022/03/16 11:51:13;;;;;;;10.60;5.80;;;;;;;;;;5094245;28;20032;-50
2022/03/16 11:53:57;;;;;;;10.52;5.47;;;;;;;;;;5085980;28;20048;-48
2022/03/16 11:56:23;;;;;;;9.18;5.45;;;;;;;;;;5083242;28;20020;-53
2022/03/16 11:58:53;;;;;;;9.85;5.82;;;;;;;;;;5076273;28;20035;-47
2022/03/16 12:01:24;;;;;;;9.52;5.68;;;;;;;;;;5078991;28;20055;-49
2022/03/16 12:04:08;;;;;;;9.65;5.55;;;;;;;;;;5091476;28;20051;-51
2022/03/16 12:06:52;;;;;;;11.65;6.25;;;;;;;;;;5083575;28;20024;-50
2022/03/16 12:09:22;;;;;;;11.88;6.40;;;;;;;;;;5082160;28;20028;-48
2022/03/16 12:14:56;;;;;;;11.75;6.28;;;;;;;;;;5078075;28;20074;-51
2022/03/16 12:17:22;;;;;;;11.13;6.78;;;;;;;;;;5082539;28;20488;-52
2022/03/16 12:20:09;;;;;;;10.93;5.57;;;;;;;;;;5085969;28;20028;-50
2022/03/16 12:22:48;;;;;;;7.93;4.45;;;;;;;;;;5083963;28;20077;-47
2022/03/16 12:25:29;;;;;;;10.02;5.35;;;;;;;;;;5089594;28;20046;-49
2022/03/16 12:30:56;;;;;;;7.63;4.72;;;;;;;;;;5088571;28;20051;-48
2022/03/16 12:33:23;;;;;;;6.10;3.85;;;;;;;;;;5085918;28;20119;-48
2022/03/16 12:35:52;;;;;;;7.38;3.65;;;;;;;;;;5088300;28;20030;-48
2022/03/16 12:38:19;;;;;;;6.20;3.42;;;;;;;;;;5086601;28;20461;-52
2022/03/16 12:43:32;;;;;;;8.70;4.35;;;;;;;;;;5090606;28;20043;-47
2022/03/16 12:46:05;;;;;;;8.27;4.18;;;;;;;;;;5090335;28;20032;-50
2022/03/16 12:48:35;;;;;;;9.00;4.53;;;;;;;;;;5082317;28;20024;-48
2022/03/16 12:51:04;;;;;;;6.78;3.67;;;;;;;;;;5092002;28;20400;-51
2022/03/16 12:53:34;;;;;;;6.82;4.03;;;;;;;;;;5086469;28;20085;-49
2022/03/16 12:56:00;;;;;;;6.93;4.25;;;;;;;;;;5088377;28;20496;-53
2022/03/16 12:58:27;;;;;;;7.97;3.90;;;;;;;;;;5088940;28;20222;-51
2022/03/16 13:00:59;;;;;;;7.18;4.10;;;;;;;;;;5083681;28;20356;-51
2022/03/16 13:03:25;;;;;;;6.47;3.70;;;;;;;;;;5089972;28;20051;-49
2022/03/16 13:05:52;;;;;;;6.18;3.80;;;;;;;;;;5089266;28;20106;-53
2022/03/16 13:08:18;;;;;;;7.95;4.00;;;;;;;;;;5089689;28;20068;-48
2022/03/16 13:13:29;;;;;;;7.38;3.78;;;;;;;;;;5086041;28;20117;-50
2022/03/16 13:16:00;;;;;;;6.38;3.42;;;;;;;;;;5088245;28;20491;-51
2022/03/16 13:18:30;;;;;;;8.32;4.22;;;;;;;;;;5090094;28;20085;-52
2022/03/16 13:20:56;;;;;;;6.43;3.88;;;;;;;;;;5083702;28;20075;-51
2022/03/16 13:23:31;;;;;;;7.00;3.83;;;;;;;;;;5085669;28;20466;-49
2022/03/16 13:26:12;;;;;;;8.35;4.00;;;;;;;;;;5082073;28;20039;-50
2022/03/16 13:28:42;;;;;;;8.18;4.82;;;;;;;;;;5085137;28;20027;-51
2022/03/16 13:31:08;;;;;;;9.68;4.45;;;;;;;;;;5082676;28;20071;-48
2022/03/16 13:33:34;;;;;;;10.05;4.75;;;;;;;;;;5087827;28;20058;-52
2022/03/16 13:36:10;;;;;;;7.80;4.85;;;;;;;;;;5087915;28;20047;-52
2022/03/16 13:38:37;;;;;;;8.68;4.47;;;;;;;;;;5085549;28;20043;-52
2022/03/16 13:41:15;;;;;;;11.73;5.60;;;;;;;;;;5087551;28;20036;-50
2022/03/16 13:43:41;;;;;;;11.35;5.22;;;;;;;;;;5089266;28;20054;-50
2022/03/16 13:46:11;;;;;;;10.55;6.03;;;;;;;;;;5089251;28;20434;-51
2022/03/16 13:48:38;;;;;;;11.57;6.00;;;;;;;;;;5082269;28;20024;-50
2022/03/16 13:51:05;;;;;;;10.23;5.65;;;;;;;;;;5086088;28;20035;-50
2022/03/16 13:53:40;;;;;;;9.57;5.55;;;;;;;;;;5076905;28;20044;-47
2022/03/16 13:56:12;;;;;;;12.63;6.75;;;;;;;;;;5090180;28;20085;-47
2022/03/16 13:58:39;;;;;;;12.02;6.50;;;;;;;;;;5086425;28;20031;-47
2022/03/16 14:01:06;;;;;;;14.68;6.28;;;;;;;;;;5083452;28;20161;-47
2022/03/16 14:03:32;;;;;;;10.55;6.22;;;;;;;;;;5086774;28;20040;-52
2022/03/16 14:06:00;;;;;;;11.63;6.35;;;;;;;;;;5077316;28;20372;-49
2022/03/16 14:08:26;;;;;;;11.45;5.95;;;;;;;;;;5083198;28;20049;-51
2022/03/16 14:10:56;;;;;;;12.65;6.47;;;;;;;;;;5083292;28;20439;-48
2022/03/16 14:13:28;;;;;;;12.98;6.80;;;;;;;;;;5085330;28;20055;-48
2022/03/16 14:16:13;;;;;;;12.55;5.97;;;;;;;;;;5083077;28;20032;-48
2022/03/16 14:18:39;;;;;;;13.05;7.18;;;;;;;;;;5085767;28;20027;-49
2022/03/16 14:21:08;;;;;;;11.98;6.15;;;;;;;;;;5087715;28;20034;-49
2022/03/16 14:23:34;;;;;;;12.15;6.60;;;;;;;;;;5085004;28;20119;-48
2022/03/16 14:26:01;;;;;;;10.85;5.80;;;;;;;;;;5079859;28;20078;-49
2022/03/16 14:28:27;;;;;;;11.95;6.35;;;;;;;;;;5082667;28;20044;-47
2022/03/16 14:30:54;;;;;;;9.52;5.72;;;;;;;;;;5083373;28;20024;-47
2022/03/16 14:33:29;;;;;;;9.73;5.70;;;;;;;;;;5090659;28;20031;-47
2022/03/16 14:35:57;;;;;;;13.88;7.10;;;;;;;;;;5090575;28;20033;-47
2022/03/16 14:38:24;;;;;;;12.82;6.18;;;;;;;;;;5085179;28;20028;-48
2022/03/16 14:40:58;;;;;;;10.98;6.13;;;;;;;;;;5082508;28;20131;-50
2022/03/16 14:43:25;;;;;;;11.05;6.07;;;;;;;;;;5087737;28;20027;-47
2022/03/16 14:45:51;;;;;;;12.13;6.50;;;;;;;;;;5087746;28;20054;-47
2022/03/16 14:48:17;;;;;;;15.30;7.80;;;;;;;;;;5088176;28;20468;-48
2022/03/16 14:50:44;;;;;;;14.18;6.68;;;;;;;;;;5086247;28;20032;-49
2022/03/16 14:53:10;;;;;;;13.27;6.72;;;;;;;;;;5084565;28;20729;-48
2022/03/16 14:55:36;;;;;;;13.90;6.82;;;;;;;;;;5080464;28;20448;-47